createdAt,value
2023-02-18T00:00:54.511Z,8.61
2023-02-18T00:05:03.620Z,8.70
2023-02-18T00:09:14.278Z,8.62
2023-02-18T00:13:23.351Z,8.62
2023-02-18T00:17:53.110Z,8.63
2023-02-18T00:21:56.456Z,8.60
2023-02-18T00:26:26.903Z,8.68
2023-02-18T00:30:27.144Z,8.68
2023-02-18T00:34:22.308Z,8.69
2023-02-18T00:38:34.572Z,8.65
2023-02-18T00:42:45.116Z,8.65
2023-02-18T00:46:56.567Z,8.53
2023-02-18T00:51:05.796Z,8.55
2023-02-18T00:55:21.953Z,8.48
2023-02-18T01:03:33.281Z,8.30
2023-02-18T01:08:03.430Z,8.21
2023-02-18T01:12:31.675Z,8.15
2023-02-18T01:17:00.498Z,8.04
2023-02-18T01:21:28.184Z,7.94
2023-02-18T01:25:56.390Z,7.92
2023-02-18T01:30:36.523Z,7.89
2023-02-18T01:35:05.658Z,7.88
2023-02-18T01:39:33.965Z,7.89
2023-02-18T01:44:04.054Z,7.79
2023-02-18T01:48:32.185Z,7.70
2023-02-18T01:53:02.739Z,7.63
2023-02-18T01:57:34.357Z,7.51
2023-02-18T02:02:02.236Z,7.56
2023-02-18T02:06:13.157Z,7.50
2023-02-18T02:10:40.999Z,7.54
2023-02-18T02:15:20.395Z,7.40
2023-02-18T02:19:46.242Z,7.41
2023-02-18T02:24:18.621Z,7.50
2023-02-18T02:28:58.212Z,7.48
2023-02-18T02:33:29.856Z,7.50
2023-02-18T02:38:16.213Z,7.46
2023-02-18T02:42:54.244Z,7.49
2023-02-18T02:47:22.235Z,7.43
2023-02-18T02:52:04.128Z,7.37
2023-02-18T02:56:32.216Z,7.21
2023-02-18T03:00:29.728Z,7.25
2023-02-18T03:04:32.369Z,7.24
2023-02-18T03:08:26.184Z,7.27
2023-02-18T03:12:18.133Z,7.27
2023-02-18T03:20:06.395Z,7.31
2023-02-18T03:23:47.104Z,7.34
2023-02-18T03:27:37.322Z,7.37
2023-02-18T03:31:25.111Z,7.34
2023-02-18T03:35:17.599Z,7.26
2023-02-18T03:39:20.259Z,7.30
2023-02-18T03:43:08.575Z,7.33
2023-02-18T03:46:56.724Z,7.36
2023-02-18T03:50:49.814Z,7.34
2023-02-18T03:54:37.502Z,7.36
2023-02-18T03:58:26.396Z,7.29
2023-02-18T04:02:14.298Z,7.31
2023-02-18T04:06:02.010Z,7.27
2023-02-18T04:09:49.840Z,7.24
2023-02-18T04:13:33.949Z,7.19
2023-02-18T04:17:22.040Z,7.25
2023-02-18T04:21:10.052Z,7.22
2023-02-18T04:25:23.216Z,7.16
2023-02-18T04:29:08.054Z,7.19
2023-02-18T04:32:55.953Z,7.17
2023-02-18T04:36:36.343Z,7.20
2023-02-18T04:40:25.156Z,7.15
2023-02-18T04:44:13.081Z,7.13
2023-02-18T04:48:01.014Z,7.15
2023-02-18T04:51:28.061Z,7.13
2023-02-18T04:55:17.246Z,7.05
2023-02-18T04:59:05.160Z,6.97
2023-02-18T05:02:53.427Z,7.01
2023-02-18T05:06:46.908Z,6.96
2023-02-18T05:10:25.190Z,6.96
2023-02-18T05:14:52.996Z,6.90
2023-02-18T05:18:42.358Z,6.87
2023-02-18T05:22:50.975Z,6.86
2023-02-18T05:26:40.683Z,6.77
2023-02-18T05:31:08.550Z,6.64
2023-02-18T05:35:17.017Z,6.63
2023-02-18T05:39:16.319Z,6.51
2023-02-18T05:43:12.808Z,6.49
2023-02-18T05:47:15.022Z,6.41
2023-02-18T05:51:43.024Z,6.28
2023-02-18T05:56:10.733Z,6.20
2023-02-18T06:00:38.587Z,6.15
2023-02-18T06:05:06.949Z,6.16
2023-02-18T06:09:38.492Z,6.13
2023-02-18T06:14:06.671Z,6.20
2023-02-18T06:18:35.175Z,6.18
2023-02-18T06:23:03.212Z,6.30
2023-02-18T06:27:20.784Z,6.78
2023-02-18T06:31:13.530Z,6.81
2023-02-18T06:35:04.656Z,6.96
2023-02-18T06:38:52.624Z,7.01
2023-02-18T06:42:34.181Z,6.99
2023-02-18T06:46:22.528Z,7.18
2023-02-18T06:50:10.747Z,7.24
2023-02-18T06:53:59.077Z,7.05
2023-02-18T06:57:32.470Z,6.90
2023-02-18T07:01:21.294Z,6.79
2023-02-18T07:04:57.717Z,6.82
2023-02-18T07:08:48.694Z,6.88
2023-02-18T07:12:38.172Z,6.93
2023-02-18T07:16:16.441Z,7.01
2023-02-18T07:20:03.228Z,7.11
2023-02-18T07:23:52.642Z,7.10
2023-02-18T07:27:46.614Z,7.28
2023-02-18T07:31:34.556Z,7.36
2023-02-18T07:35:22.924Z,7.31
2023-02-18T07:39:10.907Z,7.39
2023-02-18T07:42:51.257Z,7.48
2023-02-18T07:46:38.961Z,7.56
2023-02-18T07:50:26.008Z,7.73
2023-02-18T07:54:14.420Z,7.74
2023-02-18T07:58:23.597Z,7.78
2023-02-18T08:02:11.417Z,8.00
2023-02-18T08:05:59.891Z,8.03
2023-02-18T08:09:50.716Z,8.05
2023-02-18T08:13:39.088Z,8.00
2023-02-18T08:17:27.423Z,8.14
2023-02-18T08:21:19.011Z,8.45
2023-02-18T08:25:29.068Z,8.51
2023-02-18T08:29:17.958Z,8.60
2023-02-18T08:33:12.293Z,8.60
2023-02-18T08:37:00.683Z,8.48
2023-02-18T08:40:48.448Z,8.51
2023-02-18T08:44:36.856Z,8.55
2023-02-18T08:48:20.521Z,8.72
2023-02-18T08:52:13.851Z,8.90
2023-02-18T09:00:17.380Z,8.93
2023-02-18T09:04:05.665Z,9.35
2023-02-18T09:07:54.588Z,9.09
2023-02-18T09:11:51.792Z,9.20
2023-02-18T09:15:41.272Z,9.37
2023-02-18T09:19:32.247Z,9.58
2023-02-18T09:23:21.331Z,9.76
2023-02-18T09:27:11.363Z,9.77
2023-02-18T09:31:00.631Z,10.13
2023-02-18T09:34:59.036Z,10.12
2023-02-18T09:38:53.264Z,10.13
2023-02-18T09:42:44.494Z,9.86
2023-02-18T09:46:12.867Z,9.80
2023-02-18T09:49:29.606Z,9.83
2023-02-18T09:53:25.373Z,10.03
2023-02-18T09:56:58.106Z,9.86
2023-02-18T10:00:17.923Z,10.02
2023-02-18T10:04:01.862Z,10.09
2023-02-18T10:06:56.162Z,10.41
2023-02-18T10:10:28.348Z,10.67
2023-02-18T10:14:03.534Z,10.45
2023-02-18T10:17:58.084Z,10.22
2023-02-18T10:21:49.973Z,10.48
2023-02-18T10:25:35.514Z,10.44
2023-02-18T10:29:32.594Z,10.73
2023-02-18T10:33:04.472Z,11.03
2023-02-18T10:37:07.914Z,11.02
2023-02-18T10:41:17.567Z,10.83
2023-02-18T10:44:57.556Z,10.73
2023-02-18T10:48:51.959Z,10.76
2023-02-18T10:52:40.344Z,10.86
2023-02-18T10:56:34.658Z,11.01
2023-02-18T11:00:29.591Z,10.87
2023-02-18T11:04:27.134Z,10.79
2023-02-18T11:08:16.445Z,10.81
2023-02-18T11:12:09.209Z,11.02
2023-02-18T11:15:24.212Z,10.69
2023-02-18T11:18:52.343Z,10.43
2023-02-18T11:22:46.652Z,10.25
2023-02-18T11:26:36.596Z,10.26
2023-02-18T11:30:20.831Z,10.12
2023-02-18T11:34:21.662Z,9.77
2023-02-18T11:38:03.698Z,9.71
2023-02-18T11:41:13.796Z,9.65
2023-02-18T11:45:02.098Z,9.67
2023-02-18T11:48:26.593Z,9.81
2023-02-18T11:52:20.605Z,9.67
2023-02-18T11:56:05.280Z,9.95
2023-02-18T11:59:54.967Z,9.64
2023-02-18T12:03:45.729Z,9.34
2023-02-18T12:07:48.513Z,9.07
2023-02-18T12:12:12.659Z,8.89
2023-02-18T12:15:54.652Z,8.77
2023-02-18T12:20:04.600Z,9.01
2023-02-18T12:23:56.897Z,8.63
2023-02-18T12:27:53.652Z,8.65
2023-02-18T12:32:03.966Z,8.70
2023-02-18T12:35:52.435Z,8.45
2023-02-18T12:39:56.821Z,8.20
2023-02-18T12:43:43.548Z,8.17
2023-02-18T12:47:32.937Z,8.60
2023-02-18T12:51:33.404Z,7.99
2023-02-18T12:55:28.776Z,7.97
2023-02-18T12:59:29.265Z,7.89
2023-02-18T13:03:20.434Z,8.12
2023-02-18T13:07:14.194Z,8.49
2023-02-18T13:11:29.524Z,8.36
2023-02-18T13:15:10.348Z,8.35
2023-02-18T13:19:58.627Z,8.38
2023-02-18T13:24:32.206Z,7.95
2023-02-18T13:29:21.733Z,7.92
2023-02-18T13:34:28.899Z,8.38
2023-02-18T13:39:13.240Z,7.82
2023-02-18T13:44:01.295Z,8.45
2023-02-18T13:48:39.901Z,8.64
2023-02-18T13:53:09.486Z,8.34
2023-02-18T13:57:48.608Z,7.81
2023-02-18T14:02:25.582Z,7.81
2023-02-18T14:08:19.829Z,7.74
2023-02-18T14:11:52.167Z,7.55
2023-02-18T14:16:35.427Z,8.08
2023-02-18T14:21:24.404Z,7.56
2023-02-18T14:26:05.942Z,7.37
2023-02-18T14:30:46.174Z,7.33
2023-02-18T14:35:24.719Z,7.39
2023-02-18T14:40:04.330Z,7.53
2023-02-18T14:44:47.715Z,7.99
2023-02-18T14:52:26.975Z,7.31
2023-02-18T15:00:57.496Z,7.53
2023-02-18T15:04:19.714Z,7.46
2023-02-18T15:12:46.756Z,7.43
2023-02-18T15:17:22.879Z,7.02
2023-02-18T15:22:03.300Z,6.94
2023-02-18T15:25:29.315Z,6.95
2023-02-18T15:29:00.721Z,7.23
2023-02-18T15:32:42.708Z,7.27
2023-02-18T15:36:44.453Z,6.75
2023-02-18T15:40:13.731Z,6.62
2023-02-18T15:43:55.193Z,6.40
2023-02-18T15:47:08.250Z,6.43
2023-02-18T15:51:08.141Z,6.66
2023-02-18T15:55:05.279Z,6.65
2023-02-18T15:58:52.113Z,6.78
2023-02-18T16:02:54.945Z,6.44
2023-02-18T16:06:43.934Z,6.50
2023-02-18T16:10:29.391Z,6.47
2023-02-18T16:14:19.675Z,6.18
2023-02-18T16:18:12.737Z,6.25
2023-02-18T16:21:40.751Z,6.14
2023-02-18T16:25:23.586Z,5.94
2023-02-18T16:28:59.975Z,5.90
2023-02-18T16:32:36.397Z,5.75
2023-02-18T16:36:38.452Z,5.71
2023-02-18T16:40:11.792Z,5.62
2023-02-18T16:43:58.209Z,5.52
2023-02-18T16:48:03.052Z,5.57
2023-02-18T16:52:14.727Z,5.62
2023-02-18T16:56:01.943Z,5.53
2023-02-18T16:59:48.958Z,5.43
2023-02-18T17:04:22.621Z,5.56
2023-02-18T17:09:14.926Z,5.57
2023-02-18T17:13:35.007Z,5.49
2023-02-18T17:18:06.995Z,5.50
2023-02-18T17:22:36.705Z,5.53
2023-02-18T17:27:08.007Z,5.37
2023-02-18T17:35:28.680Z,5.28
2023-02-18T17:39:15.152Z,5.23
2023-02-18T17:43:29.908Z,5.27
2023-02-18T17:48:11.946Z,5.16
2023-02-18T17:52:34.252Z,5.06
2023-02-18T17:56:25.236Z,5.05
2023-02-18T18:00:05.356Z,5.06
2023-02-18T18:03:39.534Z,4.90
2023-02-18T18:07:26.837Z,4.86
2023-02-18T18:11:19.161Z,4.78
